Time;durP1;ratioP1;P1;durP2;ratioP2;P2;SDS_P1;SDS_P2;PMS_P1;PMS_P2;Temp;Humidity;BMP_temperature;BMP_pressure;BME280_temperature;BME280_humidity;BME280_pressure;Samples;Min_cycle;Max_cycle;Signal;HPM_P1;HPM_P2
2022/07/19 00:02:34;;;;;;;3.80;3.50;;;;;;;;;;5061160;28;20287;-62
2022/07/19 00:05:21;;;;;;;3.33;3.13;;;;;;;;;;5058034;28;20231;-62
2022/07/19 00:08:08;;;;;;;3.87;3.57;;;;;;;;;;5057876;28;20683;-62
2022/07/19 00:10:55;;;;;;;3.87;3.67;;;;;;;;;;5061424;28;20771;-62
2022/07/19 00:13:42;;;;;;;3.77;3.57;;;;;;;;;;5060809;28;20674;-62
2022/07/19 00:16:31;;;;;;;3.43;3.23;;;;;;;;;;5061336;28;20288;-62
2022/07/19 00:19:18;;;;;;;3.53;3.23;;;;;;;;;;5059224;28;20217;-62
2022/07/19 00:22:06;;;;;;;3.20;3.00;;;;;;;;;;5057673;28;20247;-62
2022/07/19 00:24:52;;;;;;;3.60;3.40;;;;;;;;;;5060330;28;20204;-62
2022/07/19 00:27:41;;;;;;;3.50;3.30;;;;;;;;;;5062029;28;20666;-62
2022/07/19 00:30:28;;;;;;;3.43;3.23;;;;;;;;;;5067406;28;20495;-62
2022/07/19 00:33:17;;;;;;;3.53;3.30;;;;;;;;;;5061871;28;20574;-62
2022/07/19 00:36:04;;;;;;;3.70;3.40;;;;;;;;;;5063491;28;20206;-62
2022/07/19 00:38:51;;;;;;;4.03;3.73;;;;;;;;;;5064441;28;20695;-62
2022/07/19 00:41:42;;;;;;;3.50;3.30;;;;;;;;;;5054563;28;20238;-62
2022/07/19 00:44:30;;;;;;;3.77;3.47;;;;;;;;;;5054523;28;20264;-62
2022/07/19 00:47:17;;;;;;;3.30;3.10;;;;;;;;;;5055488;28;20217;-62
2022/07/19 00:50:06;;;;;;;3.87;3.67;;;;;;;;;;5056659;28;20220;-63
2022/07/19 00:53:00;;;;;;;3.63;3.43;;;;;;;;;;5062952;28;20209;-62
2022/07/19 00:55:47;;;;;;;3.47;3.27;;;;;;;;;;5060884;28;20247;-63
2022/07/19 00:58:36;;;;;;;3.07;2.93;;;;;;;;;;5062619;28;20316;-62
2022/07/19 01:01:23;;;;;;;3.60;3.40;;;;;;;;;;5060194;28;20701;-62
2022/07/19 01:04:11;;;;;;;3.70;3.50;;;;;;;;;;5063821;28;20216;-62
2022/07/19 01:07:00;;;;;;;3.53;3.33;;;;;;;;;;5058581;28;20226;-62
2022/07/19 01:09:47;;;;;;;3.63;3.43;;;;;;;;;;5059169;28;20282;-63
2022/07/19 01:12:35;;;;;;;3.33;3.13;;;;;;;;;;5057316;28;20584;-63
2022/07/19 01:15:24;;;;;;;3.40;3.20;;;;;;;;;;5060338;28;20237;-62
2022/07/19 01:18:12;;;;;;;3.40;3.20;;;;;;;;;;5061125;28;20232;-62
2022/07/19 01:20:59;;;;;;;3.23;3.03;;;;;;;;;;5058271;28;20243;-62
2022/07/19 01:23:48;;;;;;;3.43;3.23;;;;;;;;;;5060422;28;20201;-62
2022/07/19 01:26:35;;;;;;;3.50;3.30;;;;;;;;;;5060069;28;20209;-62
2022/07/19 01:29:22;;;;;;;3.63;3.33;;;;;;;;;;5061529;28;20278;-63
2022/07/19 01:32:09;;;;;;;3.40;3.20;;;;;;;;;;5059040;28;20298;-62
2022/07/19 01:34:56;;;;;;;3.50;3.30;;;;;;;;;;5063119;28;20211;-62
2022/07/19 01:37:43;;;;;;;3.10;2.90;;;;;;;;;;5057758;28;20299;-63
2022/07/19 01:40:33;;;;;;;3.20;3.00;;;;;;;;;;5061260;28;20216;-62
2022/07/19 01:43:19;;;;;;;3.50;3.30;;;;;;;;;;5055256;28;20214;-62
2022/07/19 01:46:07;;;;;;;3.20;3.00;;;;;;;;;;5062602;28;20209;-62
2022/07/19 01:48:54;;;;;;;3.23;3.03;;;;;;;;;;5055301;28;20634;-62
2022/07/19 01:51:41;;;;;;;3.33;3.13;;;;;;;;;;5053731;28;20279;-62
2022/07/19 01:54:28;;;;;;;3.40;3.10;;;;;;;;;;5062625;28;20214;-62
2022/07/19 01:57:16;;;;;;;3.40;3.20;;;;;;;;;;5063135;28;20265;-62
2022/07/19 02:00:05;;;;;;;3.87;3.33;;;;;;;;;;5059004;28;20207;-62
2022/07/19 02:02:52;;;;;;;3.40;3.20;;;;;;;;;;5057633;28;20205;-62
2022/07/19 02:05:39;;;;;;;3.03;2.83;;;;;;;;;;5060885;28;20221;-62
2022/07/19 02:08:27;;;;;;;3.23;3.03;;;;;;;;;;5060640;28;20682;-62
2022/07/19 02:14:20;;;;;;;3.23;3.03;;;;;;;;;;5064098;28;20240;-62
2022/07/19 02:17:07;;;;;;;3.17;2.97;;;;;;;;;;5057581;28;20339;-62
2022/07/19 02:19:54;;;;;;;2.90;2.80;;;;;;;;;;5057605;28;20203;-64
2022/07/19 02:22:41;;;;;;;3.30;3.10;;;;;;;;;;5060041;28;20588;-62
2022/07/19 02:25:28;;;;;;;3.20;3.00;;;;;;;;;;5054724;28;20221;-62
2022/07/19 02:28:15;;;;;;;3.20;3.00;;;;;;;;;;5054473;28;20335;-63
2022/07/19 02:31:03;;;;;;;3.57;3.20;;;;;;;;;;5061507;28;20241;-62
2022/07/19 02:33:51;;;;;;;3.47;3.27;;;;;;;;;;5060062;28;20336;-62
2022/07/19 02:36:37;;;;;;;3.50;3.30;;;;;;;;;;5058293;28;20213;-62
2022/07/19 02:39:25;;;;;;;3.50;3.30;;;;;;;;;;5057442;28;20210;-62
2022/07/19 02:42:12;;;;;;;3.33;3.13;;;;;;;;;;5059662;28;20212;-62
2022/07/19 02:44:58;;;;;;;2.97;2.87;;;;;;;;;;5060872;28;20538;-63
2022/07/19 02:47:47;;;;;;;3.17;2.97;;;;;;;;;;5055705;28;20202;-62
2022/07/19 02:50:34;;;;;;;3.10;2.90;;;;;;;;;;5062028;28;20274;-62
2022/07/19 02:53:21;;;;;;;3.30;3.10;;;;;;;;;;5053840;28;20236;-62
2022/07/19 02:56:08;;;;;;;2.80;2.70;;;;;;;;;;5060649;28;20768;-62
2022/07/19 02:58:55;;;;;;;2.70;2.60;;;;;;;;;;5058690;28;20216;-62
2022/07/19 03:01:42;;;;;;;3.10;2.90;;;;;;;;;;5056653;28;20202;-62
2022/07/19 03:04:31;;;;;;;2.90;2.80;;;;;;;;;;5055672;28;20208;-62
2022/07/19 03:07:18;;;;;;;3.27;3.07;;;;;;;;;;5061168;28;20214;-62
2022/07/19 03:10:06;;;;;;;3.33;3.13;;;;;;;;;;5053205;28;20217;-63
2022/07/19 03:12:53;;;;;;;3.20;3.00;;;;;;;;;;5059832;28;20201;-62
2022/07/19 03:15:40;;;;;;;3.40;3.20;;;;;;;;;;5059749;28;20263;-62
2022/07/19 03:18:27;;;;;;;3.33;3.13;;;;;;;;;;5056163;28;20221;-62
2022/07/19 03:21:15;;;;;;;3.20;3.00;;;;;;;;;;5063712;28;20249;-62
2022/07/19 03:24:02;;;;;;;3.17;2.97;;;;;;;;;;5062659;28;20210;-63
2022/07/19 03:26:49;;;;;;;3.03;2.83;;;;;;;;;;5059503;28;20292;-62
2022/07/19 03:29:37;;;;;;;4.20;3.10;;;;;;;;;;5064993;28;20731;-62
2022/07/19 03:32:23;;;;;;;3.53;3.23;;;;;;;;;;5063222;28;20215;-65
2022/07/19 03:35:11;;;;;;;3.50;3.30;;;;;;;;;;5060816;28;20202;-62
2022/07/19 03:37:59;;;;;;;3.13;2.93;;;;;;;;;;5064862;28;20219;-62
2022/07/19 03:40:47;;;;;;;3.40;3.20;;;;;;;;;;5057279;28;20242;-62
2022/07/19 03:43:34;;;;;;;3.00;2.90;;;;;;;;;;5062956;28;20202;-63
2022/07/19 03:46:21;;;;;;;3.00;2.90;;;;;;;;;;5058211;28;20248;-62
2022/07/19 03:49:08;;;;;;;3.10;2.90;;;;;;;;;;5064765;28;20216;-62
2022/07/19 03:51:55;;;;;;;3.13;2.93;;;;;;;;;;5056353;28;20229;-62
2022/07/19 03:54:44;;;;;;;3.33;3.13;;;;;;;;;;5061064;28;20212;-62
2022/07/19 03:57:31;;;;;;;3.00;2.80;;;;;;;;;;5066437;28;20236;-62
2022/07/19 04:00:18;;;;;;;2.87;2.77;;;;;;;;;;5062432;28;20621;-62
2022/07/19 04:03:04;;;;;;;2.93;2.83;;;;;;;;;;5060381;28;20339;-62
2022/07/19 04:05:51;;;;;;;3.30;3.10;;;;;;;;;;5061693;28;20265;-62
2022/07/19 04:08:39;;;;;;;3.17;2.97;;;;;;;;;;5059351;28;20221;-62
2022/07/19 04:11:27;;;;;;;2.77;2.57;;;;;;;;;;5059777;28;20461;-62
2022/07/19 04:14:14;;;;;;;2.97;2.77;;;;;;;;;;5065918;28;20206;-64
2022/07/19 04:17:04;;;;;;;3.10;3.00;;;;;;;;;;5058921;28;20211;-62
2022/07/19 04:19:51;;;;;;;3.00;2.80;;;;;;;;;;5060263;28;20612;-62
2022/07/19 04:22:38;;;;;;;3.10;2.90;;;;;;;;;;5057879;28;20212;-62
2022/07/19 04:25:25;;;;;;;3.13;2.93;;;;;;;;;;5060596;28;20204;-63
2022/07/19 04:28:13;;;;;;;3.10;2.90;;;;;;;;;;5060522;28;20227;-62
2022/07/19 04:31:00;;;;;;;2.90;2.70;;;;;;;;;;5060414;28;20233;-62
2022/07/19 04:33:47;;;;;;;2.97;2.83;;;;;;;;;;5063379;28;20204;-63
2022/07/19 04:36:34;;;;;;;3.07;2.87;;;;;;;;;;5061384;28;20349;-62
2022/07/19 04:39:21;;;;;;;3.13;2.93;;;;;;;;;;5062053;28;20203;-63
2022/07/19 04:42:08;;;;;;;3.33;3.13;;;;;;;;;;5062488;28;20281;-62
2022/07/19 04:44:57;;;;;;;3.20;3.00;;;;;;;;;;5059960;28;20215;-62
2022/07/19 04:47:44;;;;;;;3.40;3.10;;;;;;;;;;5058797;28;20745;-62
2022/07/19 04:50:31;;;;;;;3.13;2.93;;;;;;;;;;5057617;28;20208;-62
2022/07/19 04:53:18;;;;;;;3.00;2.80;;;;;;;;;;5060727;28;20215;-62
2022/07/19 04:56:05;;;;;;;2.87;2.70;;;;;;;;;;5056115;28;20222;-62
2022/07/19 04:58:52;;;;;;;3.17;2.97;;;;;;;;;;5060040;28;21091;-62
2022/07/19 05:01:41;;;;;;;2.90;2.70;;;;;;;;;;5058978;28;20243;-62
2022/07/19 05:04:28;;;;;;;3.23;3.03;;;;;;;;;;5063870;28;20627;-62
2022/07/19 05:07:15;;;;;;;2.93;2.73;;;;;;;;;;5064871;28;20261;-62
2022/07/19 05:10:02;;;;;;;3.20;3.00;;;;;;;;;;5058345;28;20205;-62
2022/07/19 05:12:49;;;;;;;3.03;2.83;;;;;;;;;;5059524;28;22900;-62
2022/07/19 05:15:37;;;;;;;2.80;2.60;;;;;;;;;;5056998;28;20218;-62
2022/07/19 05:18:25;;;;;;;2.93;2.73;;;;;;;;;;5053228;28;20206;-62
2022/07/19 05:21:12;;;;;;;2.90;2.70;;;;;;;;;;5057348;28;20321;-62
2022/07/19 05:23:59;;;;;;;3.00;2.80;;;;;;;;;;5059681;28;20730;-64
2022/07/19 05:26:46;;;;;;;3.40;3.10;;;;;;;;;;5057255;28;20211;-63
2022/07/19 05:29:33;;;;;;;2.53;2.33;;;;;;;;;;5058985;28;20293;-62
2022/07/19 05:32:20;;;;;;;3.00;2.80;;;;;;;;;;5056324;28;20225;-62
2022/07/19 05:35:09;;;;;;;2.97;2.77;;;;;;;;;;5057973;28;20569;-63
2022/07/19 05:37:56;;;;;;;3.00;2.80;;;;;;;;;;5061995;28;20202;-62
2022/07/19 05:40:43;;;;;;;3.57;3.37;;;;;;;;;;5060163;28;20262;-62
2022/07/19 05:43:30;;;;;;;3.20;3.00;;;;;;;;;;5059392;28;20288;-63
2022/07/19 05:46:17;;;;;;;3.07;2.87;;;;;;;;;;5061937;28;20205;-62
2022/07/19 05:49:04;;;;;;;2.87;2.73;;;;;;;;;;5060217;28;20210;-62
2022/07/19 05:51:52;;;;;;;3.23;3.03;;;;;;;;;;5063599;28;20229;-63
2022/07/19 05:54:39;;;;;;;3.23;3.03;;;;;;;;;;5058713;28;20205;-63
2022/07/19 05:57:26;;;;;;;2.92;2.75;;;;;;;;;;5059997;28;20678;-62
2022/07/19 06:00:14;;;;;;;2.97;2.85;;;;;;;;;;5062885;28;20552;-62
2022/07/19 06:03:01;;;;;;;2.95;2.85;;;;;;;;;;5062719;28;20252;-63
2022/07/19 06:05:48;;;;;;;3.10;2.90;;;;;;;;;;5060012;28;20280;-62
2022/07/19 06:08:36;;;;;;;3.30;3.00;;;;;;;;;;5056195;28;20216;-63
2022/07/19 06:11:24;;;;;;;3.33;3.03;;;;;;;;;;5058911;28;20266;-63
2022/07/19 06:14:12;;;;;;;3.20;3.00;;;;;;;;;;5061976;28;20238;-62
2022/07/19 06:16:59;;;;;;;3.15;2.95;;;;;;;;;;5060721;28;20297;-70
2022/07/19 06:19:46;;;;;;;3.00;2.80;;;;;;;;;;5062870;28;20212;-62
2022/07/19 06:22:33;;;;;;;3.15;2.95;;;;;;;;;;5054886;28;20457;-64
2022/07/19 06:25:21;;;;;;;3.10;2.90;;;;;;;;;;5060209;28;20207;-63
2022/07/19 06:28:08;;;;;;;3.25;2.95;;;;;;;;;;5060753;28;20245;-63
2022/07/19 06:30:55;;;;;;;3.10;2.90;;;;;;;;;;5059169;28;20208;-62
2022/07/19 06:33:43;;;;;;;3.03;2.85;;;;;;;;;;5060397;28;20191;-63
2022/07/19 06:36:29;;;;;;;2.97;2.78;;;;;;;;;;5059714;28;20223;-63
2022/07/19 06:39:16;;;;;;;2.95;2.75;;;;;;;;;;5065331;28;20574;-62
2022/07/19 06:42:05;;;;;;;3.15;2.95;;;;;;;;;;5057377;28;20202;-63
2022/07/19 06:44:52;;;;;;;3.22;3.03;;;;;;;;;;5063141;28;20211;-63
2022/07/19 06:47:39;;;;;;;3.00;2.75;;;;;;;;;;5057313;28;20253;-63
2022/07/19 06:50:26;;;;;;;3.17;2.95;;;;;;;;;;5052740;28;20209;-63
2022/07/19 06:53:13;;;;;;;2.83;2.67;;;;;;;;;;5061447;28;20749;-63
2022/07/19 06:56:00;;;;;;;3.05;2.85;;;;;;;;;;5066749;28;20709;-61
2022/07/19 06:58:49;;;;;;;2.90;2.70;;;;;;;;;;5061532;28;20203;-61
2022/07/19 07:01:36;;;;;;;3.03;2.83;;;;;;;;;;5066112;28;20218;-61
2022/07/19 07:04:23;;;;;;;2.83;2.72;;;;;;;;;;5062237;28;20219;-61
2022/07/19 07:07:10;;;;;;;3.05;2.85;;;;;;;;;;5061410;28;20576;-61
2022/07/19 07:09:57;;;;;;;2.83;2.67;;;;;;;;;;5062143;28;20286;-61
2022/07/19 07:12:44;;;;;;;2.85;2.65;;;;;;;;;;5057140;28;20310;-61
2022/07/19 07:15:32;;;;;;;2.85;2.65;;;;;;;;;;5063691;28;20284;-61
2022/07/19 07:18:19;;;;;;;3.35;3.10;;;;;;;;;;5057576;28;20682;-61
2022/07/19 07:21:06;;;;;;;3.00;2.80;;;;;;;;;;5061716;28;20234;-63
2022/07/19 07:23:53;;;;;;;3.00;2.80;;;;;;;;;;5063041;28;20303;-63
2022/07/19 07:26:40;;;;;;;3.00;2.70;;;;;;;;;;5061723;28;20277;-63
2022/07/19 07:29:27;;;;;;;3.47;3.28;;;;;;;;;;5059863;28;20337;-63
2022/07/19 07:32:16;;;;;;;3.20;3.00;;;;;;;;;;5061015;28;20243;-63
2022/07/19 07:35:03;;;;;;;2.90;2.80;;;;;;;;;;5068802;28;20769;-63
2022/07/19 07:37:50;;;;;;;3.35;3.15;;;;;;;;;;5059992;28;20647;-63
2022/07/19 07:40:37;;;;;;;3.08;2.88;;;;;;;;;;5069745;28;20374;-63
2022/07/19 07:43:24;;;;;;;2.75;2.58;;;;;;;;;;5061630;28;20333;-63
2022/07/19 07:46:11;;;;;;;3.55;3.25;;;;;;;;;;5061217;28;20204;-61
2022/07/19 07:49:00;;;;;;;2.78;2.65;;;;;;;;;;5066741;28;20203;-61
2022/07/19 07:51:46;;;;;;;3.10;2.90;;;;;;;;;;5058590;28;20276;-61
2022/07/19 07:54:34;;;;;;;3.08;2.90;;;;;;;;;;5061043;28;20204;-61
2022/07/19 07:57:21;;;;;;;2.92;2.70;;;;;;;;;;5058874;28;20738;-61
2022/07/19 08:00:11;;;;;;;3.10;2.90;;;;;;;;;;5055167;28;20208;-60
2022/07/19 08:02:58;;;;;;;3.00;2.80;;;;;;;;;;5060746;28;20286;-61
2022/07/19 08:05:47;;;;;;;2.80;2.60;;;;;;;;;;5064777;28;20258;-62
2022/07/19 08:08:34;;;;;;;3.00;2.80;;;;;;;;;;5063169;28;20212;-61
2022/07/19 08:11:22;;;;;;;2.92;2.72;;;;;;;;;;5063606;28;20219;-61
2022/07/19 08:14:09;;;;;;;2.80;2.63;;;;;;;;;;5062556;28;20210;-61
2022/07/19 08:16:56;;;;;;;3.08;2.88;;;;;;;;;;5062630;28;20218;-61
2022/07/19 08:19:43;;;;;;;3.00;2.80;;;;;;;;;;5060167;28;20686;-66
2022/07/19 08:22:31;;;;;;;2.80;2.63;;;;;;;;;;5057637;28;20239;-62
2022/07/19 08:25:18;;;;;;;3.22;3.00;;;;;;;;;;5061123;28;20207;-61
2022/07/19 08:28:06;;;;;;;2.95;2.75;;;;;;;;;;5060417;28;20199;-61
2022/07/19 08:30:53;;;;;;;3.28;3.08;;;;;;;;;;5062899;28;20208;-61
2022/07/19 08:33:40;;;;;;;3.20;3.00;;;;;;;;;;5061276;28;20879;-61
2022/07/19 08:36:27;;;;;;;3.15;2.95;;;;;;;;;;5061094;28;20230;-61
2022/07/19 08:39:16;;;;;;;3.00;2.80;;;;;;;;;;5060319;28;20210;-61
2022/07/19 08:42:03;;;;;;;2.83;2.65;;;;;;;;;;5057996;28;20211;-61
2022/07/19 08:44:52;;;;;;;2.78;2.67;;;;;;;;;;5066406;28;20222;-61
2022/07/19 08:47:39;;;;;;;2.60;2.50;;;;;;;;;;5062396;28;20211;-60
2022/07/19 08:50:27;;;;;;;3.30;3.10;;;;;;;;;;5059285;28;20298;-61
2022/07/19 08:53:15;;;;;;;2.88;2.67;;;;;;;;;;5059185;28;20309;-61
2022/07/19 08:57:56;;;;;;;3.28;3.08;;;;;;;;;;5056900;28;20216;-63
2022/07/19 08:59:10;;;;;;;2.92;2.83;;;;;;;;;;5062971;28;20238;-60
2022/07/19 09:01:57;;;;;;;2.92;2.72;;;;;;;;;;5060000;28;20207;-63
2022/07/19 09:04:45;;;;;;;3.17;2.97;;;;;;;;;;5060867;28;20292;-63
2022/07/19 09:07:32;;;;;;;3.05;2.85;;;;;;;;;;5059453;28;20207;-60
2022/07/19 09:10:21;;;;;;;2.90;2.70;;;;;;;;;;5063828;28;20214;-63
2022/07/19 09:13:11;;;;;;;3.10;2.90;;;;;;;;;;5056474;28;20231;-64
2022/07/19 09:15:58;;;;;;;2.75;2.65;;;;;;;;;;5061924;28;20281;-63
2022/07/19 09:18:46;;;;;;;2.90;2.70;;;;;;;;;;5058411;28;20244;-63
2022/07/19 09:21:51;;;;;;;2.78;2.58;;;;;;;;;;5060372;28;20251;-63
2022/07/19 09:24:41;;;;;;;3.17;2.97;;;;;;;;;;5058434;28;20213;-63
2022/07/19 09:27:29;;;;;;;2.83;2.63;;;;;;;;;;5053575;28;20208;-63
2022/07/19 09:30:33;;;;;;;2.70;2.60;;;;;;;;;;5062405;28;20196;-63
2022/07/19 09:33:21;;;;;;;3.20;3.00;;;;;;;;;;5057051;28;20215;-62
2022/07/19 09:36:13;;;;;;;3.03;2.83;;;;;;;;;;5061358;28;20288;-63
2022/07/19 09:39:00;;;;;;;2.70;2.60;;;;;;;;;;5056699;28;20744;-63
2022/07/19 09:41:55;;;;;;;2.55;2.45;;;;;;;;;;5060788;28;20206;-63
2022/07/19 09:44:44;;;;;;;2.90;2.70;;;;;;;;;;5055142;28;20675;-63
2022/07/19 09:47:33;;;;;;;2.88;2.67;;;;;;;;;;5059848;28;20656;-63
2022/07/19 09:50:21;;;;;;;2.72;2.63;;;;;;;;;;5063509;28;20655;-63
2022/07/19 09:53:08;;;;;;;2.70;2.50;;;;;;;;;;5060303;28;20709;-62
2022/07/19 09:55:55;;;;;;;2.67;2.58;;;;;;;;;;5059350;28;20698;-62
2022/07/19 09:58:43;;;;;;;3.20;3.00;;;;;;;;;;5058043;28;20212;-63
2022/07/19 10:01:31;;;;;;;2.85;2.65;;;;;;;;;;5059796;28;20595;-62
2022/07/19 10:04:20;;;;;;;2.72;2.53;;;;;;;;;;5061089;28;20211;-62
2022/07/19 10:07:07;;;;;;;2.80;2.70;;;;;;;;;;5058186;28;20203;-62
2022/07/19 10:09:56;;;;;;;3.08;2.88;;;;;;;;;;5058380;28;20214;-63
2022/07/19 10:12:46;;;;;;;3.00;2.80;;;;;;;;;;5055449;28;20303;-63
2022/07/19 10:15:38;;;;;;;2.90;2.80;;;;;;;;;;5057203;28;20711;-62
2022/07/19 10:18:30;;;;;;;2.95;2.78;;;;;;;;;;5062866;28;20231;-63
2022/07/19 10:21:19;;;;;;;2.75;2.60;;;;;;;;;;5057098;28;20243;-63
2022/07/19 10:24:06;;;;;;;3.15;2.95;;;;;;;;;;5055112;28;20200;-66
2022/07/19 10:26:56;;;;;;;2.63;2.53;;;;;;;;;;5057973;28;20592;-63
2022/07/19 10:29:43;;;;;;;2.90;2.75;;;;;;;;;;5059147;28;20206;-62
2022/07/19 10:32:32;;;;;;;2.75;2.65;;;;;;;;;;5063773;28;20582;-63
2022/07/19 10:35:21;;;;;;;2.63;2.53;;;;;;;;;;5058356;28;20200;-63
2022/07/19 10:38:11;;;;;;;2.80;2.60;;;;;;;;;;5058545;28;20257;-64
2022/07/19 10:40:59;;;;;;;2.90;2.70;;;;;;;;;;5056963;28;20196;-63
2022/07/19 10:44:08;;;;;;;2.90;2.70;;;;;;;;;;5053762;28;20663;-63
2022/07/19 10:46:55;;;;;;;2.70;2.60;;;;;;;;;;5056892;28;20200;-63
2022/07/19 10:49:43;;;;;;;3.20;2.90;;;;;;;;;;5056662;28;20455;-63
2022/07/19 10:52:34;;;;;;;2.90;2.70;;;;;;;;;;5060817;28;20288;-63
2022/07/19 10:55:28;;;;;;;2.53;2.42;;;;;;;;;;5057419;28;20338;-63
2022/07/19 10:58:15;;;;;;;2.40;2.30;;;;;;;;;;5057166;28;20293;-63
2022/07/19 11:01:15;;;;;;;2.92;2.72;;;;;;;;;;5056525;28;20679;-63
2022/07/19 11:04:29;;;;;;;2.67;2.47;;;;;;;;;;5060226;28;20218;-63
2022/07/19 11:07:20;;;;;;;2.50;2.40;;;;;;;;;;5048774;28;20315;-63
2022/07/19 11:10:07;;;;;;;2.70;2.50;;;;;;;;;;5061639;28;20671;-63
2022/07/19 11:12:57;;;;;;;2.72;2.58;;;;;;;;;;5056386;28;20231;-63
2022/07/19 11:15:55;;;;;;;2.50;2.40;;;;;;;;;;5056147;28;20204;-63
2022/07/19 11:18:43;;;;;;;2.53;2.42;;;;;;;;;;5053759;28;20286;-63
2022/07/19 11:21:32;;;;;;;2.80;2.70;;;;;;;;;;5060893;28;20592;-66
2022/07/19 11:24:22;;;;;;;2.60;2.50;;;;;;;;;;5055899;28;20212;-62
2022/07/19 11:27:09;;;;;;;2.70;2.60;;;;;;;;;;5053167;28;20230;-62
2022/07/19 11:29:58;;;;;;;2.50;2.40;;;;;;;;;;5054534;28;20659;-62
2022/07/19 11:32:52;;;;;;;2.70;2.60;;;;;;;;;;5056101;28;20215;-62
2022/07/19 11:35:39;;;;;;;2.97;2.78;;;;;;;;;;5056303;28;20581;-63
2022/07/19 11:38:36;;;;;;;2.38;2.28;;;;;;;;;;5052309;28;20219;-63
2022/07/19 11:41:25;;;;;;;2.30;2.20;;;;;;;;;;5060975;28;20227;-63
2022/07/19 11:44:12;;;;;;;2.65;2.55;;;;;;;;;;5060688;28;20207;-63
2022/07/19 11:47:00;;;;;;;2.72;2.53;;;;;;;;;;5061993;28;20214;-63
2022/07/19 11:49:47;;;;;;;2.40;2.30;;;;;;;;;;5060293;28;20208;-63
2022/07/19 11:52:47;;;;;;;2.40;2.30;;;;;;;;;;5060498;28;20215;-63
2022/07/19 11:55:36;;;;;;;2.47;2.38;;;;;;;;;;5060960;28;20204;-63
2022/07/19 11:58:24;;;;;;;2.53;2.42;;;;;;;;;;5056294;28;20286;-62
2022/07/19 12:01:11;;;;;;;2.25;2.13;;;;;;;;;;5063050;28;20215;-63
2022/07/19 12:04:03;;;;;;;2.70;2.60;;;;;;;;;;5061878;28;20207;-63
2022/07/19 12:06:52;;;;;;;2.63;2.53;;;;;;;;;;5053793;28;20219;-62
2022/07/19 12:09:39;;;;;;;2.33;2.22;;;;;;;;;;5057356;28;20592;-63
2022/07/19 12:12:26;;;;;;;2.38;2.28;;;;;;;;;;5062303;28;20211;-62
2022/07/19 12:15:13;;;;;;;2.35;2.25;;;;;;;;;;5066902;28;20211;-63
2022/07/19 12:18:00;;;;;;;2.38;2.28;;;;;;;;;;5062806;28;20678;-63
2022/07/19 12:21:29;;;;;;;2.53;2.42;;;;;;;;;;5057057;28;20242;-63
2022/07/19 12:24:21;;;;;;;2.58;2.42;;;;;;;;;;5062173;28;20334;-63
2022/07/19 12:27:09;;;;;;;2.30;2.20;;;;;;;;;;5056011;28;20208;-63
2022/07/19 12:29:58;;;;;;;2.33;2.22;;;;;;;;;;5063647;28;20229;-63
2022/07/19 12:32:46;;;;;;;2.22;2.13;;;;;;;;;;5063477;28;20252;-62
2022/07/19 12:35:42;;;;;;;2.50;2.40;;;;;;;;;;5056994;28;20218;-63
2022/07/19 12:38:32;;;;;;;2.58;2.47;;;;;;;;;;5061430;28;20679;-63
2022/07/19 12:41:19;;;;;;;2.45;2.35;;;;;;;;;;5056246;28;20206;-62
2022/07/19 12:44:06;;;;;;;2.45;2.35;;;;;;;;;;5066384;28;20208;-63
2022/07/19 12:46:53;;;;;;;2.15;2.05;;;;;;;;;;5057659;28;20208;-63
2022/07/19 12:49:44;;;;;;;2.50;2.30;;;;;;;;;;5058278;28;20212;-63
2022/07/19 12:52:31;;;;;;;2.67;2.58;;;;;;;;;;5057815;28;20618;-62
2022/07/19 12:55:20;;;;;;;2.55;2.45;;;;;;;;;;5059522;28;20207;-63
2022/07/19 12:58:08;;;;;;;2.90;2.80;;;;;;;;;;5059889;28;20196;-62
2022/07/19 13:00:57;;;;;;;2.70;2.53;;;;;;;;;;5057741;28;20206;-63
2022/07/19 13:03:44;;;;;;;2.53;2.42;;;;;;;;;;5063990;28;20268;-62
2022/07/19 13:06:31;;;;;;;2.38;2.28;;;;;;;;;;5057904;28;20235;-63
2022/07/19 13:09:19;;;;;;;2.45;2.35;;;;;;;;;;5062317;28;20207;-63
2022/07/19 13:12:09;;;;;;;2.45;2.35;;;;;;;;;;5059614;28;20210;-63
2022/07/19 13:14:56;;;;;;;2.35;2.25;;;;;;;;;;5060766;28;20317;-63
2022/07/19 13:17:43;;;;;;;2.35;2.15;;;;;;;;;;5066452;28;20288;-63
2022/07/19 13:20:30;;;;;;;2.10;2.00;;;;;;;;;;5057096;28;20236;-62
2022/07/19 13:23:17;;;;;;;2.35;2.25;;;;;;;;;;5056148;28;20203;-63
2022/07/19 13:26:04;;;;;;;2.40;2.30;;;;;;;;;;5055592;28;20204;-63
2022/07/19 13:28:53;;;;;;;2.20;2.10;;;;;;;;;;5057658;28;20204;-63
2022/07/19 13:31:40;;;;;;;2.28;2.17;;;;;;;;;;5064095;28;20254;-63
2022/07/19 13:34:27;;;;;;;2.45;2.35;;;;;;;;;;5053225;28;20215;-63
2022/07/19 13:37:14;;;;;;;2.53;2.42;;;;;;;;;;5060913;28;20204;-63
2022/07/19 13:40:01;;;;;;;2.15;2.05;;;;;;;;;;5061483;28;20210;-63
2022/07/19 13:42:48;;;;;;;2.42;2.33;;;;;;;;;;5059160;28;21057;-67
2022/07/19 13:45:37;;;;;;;2.42;2.33;;;;;;;;;;5058042;28;20204;-62
2022/07/19 13:48:24;;;;;;;2.25;2.15;;;;;;;;;;5058260;28;20238;-63
2022/07/19 13:51:11;;;;;;;2.40;2.30;;;;;;;;;;5056393;28;20207;-62
2022/07/19 13:53:58;;;;;;;2.17;2.08;;;;;;;;;;5050670;28;20578;-67
2022/07/19 13:56:45;;;;;;;2.20;2.10;;;;;;;;;;5055709;28;20240;-62
2022/07/19 13:59:33;;;;;;;2.10;2.00;;;;;;;;;;5056994;28;20634;-63
2022/07/19 14:02:21;;;;;;;2.17;2.08;;;;;;;;;;5054580;28;20433;-63
2022/07/19 14:05:09;;;;;;;2.13;2.03;;;;;;;;;;5055158;28;20220;-62
2022/07/19 14:07:56;;;;;;;2.22;2.13;;;;;;;;;;5056985;28;20290;-62
2022/07/19 14:10:43;;;;;;;2.40;2.30;;;;;;;;;;5059424;28;20659;-62
2022/07/19 14:13:31;;;;;;;2.30;2.20;;;;;;;;;;5052957;28;20199;-63
2022/07/19 14:16:18;;;;;;;2.47;2.38;;;;;;;;;;5052069;28;20211;-62
2022/07/19 14:19:06;;;;;;;1.95;1.85;;;;;;;;;;5057152;28;20216;-63
2022/07/19 14:21:53;;;;;;;2.42;2.33;;;;;;;;;;5054330;28;20598;-62
2022/07/19 14:24:40;;;;;;;2.10;2.00;;;;;;;;;;5060344;28;20199;-62
2022/07/19 14:27:28;;;;;;;2.25;2.15;;;;;;;;;;5054203;28;20258;-62
2022/07/19 14:30:15;;;;;;;2.10;2.00;;;;;;;;;;5058943;28;20227;-62
2022/07/19 14:33:03;;;;;;;2.00;1.90;;;;;;;;;;5058014;28;20191;-63
2022/07/19 14:35:51;;;;;;;2.22;2.13;;;;;;;;;;5054584;28;20702;-63
2022/07/19 14:38:38;;;;;;;2.60;2.50;;;;;;;;;;5056160;28;20209;-63
2022/07/19 14:41:25;;;;;;;1.90;1.77;;;;;;;;;;5052718;28;20217;-62
2022/07/19 14:44:12;;;;;;;2.17;2.08;;;;;;;;;;5055311;28;20739;-62
2022/07/19 14:46:59;;;;;;;1.83;1.73;;;;;;;;;;5052327;28;20211;-63
2022/07/19 14:49:46;;;;;;;2.22;2.13;;;;;;;;;;5058623;28;20215;-62
2022/07/19 14:52:35;;;;;;;2.28;2.17;;;;;;;;;;5060365;28;20284;-63
2022/07/19 14:55:22;;;;;;;2.33;2.22;;;;;;;;;;5054933;28;20238;-62
2022/07/19 14:58:09;;;;;;;2.22;2.13;;;;;;;;;;5060709;28;20204;-62
2022/07/19 15:00:56;;;;;;;2.22;2.13;;;;;;;;;;5054047;28;20204;-62
2022/07/19 15:03:43;;;;;;;2.10;2.00;;;;;;;;;;5058029;28;20222;-62
2022/07/19 15:06:30;;;;;;;2.17;2.08;;;;;;;;;;5052033;28;20243;-65
2022/07/19 15:09:18;;;;;;;2.20;2.10;;;;;;;;;;5050319;28;20199;-62
2022/07/19 15:12:06;;;;;;;2.15;2.05;;;;;;;;;;5056171;28;20199;-62
2022/07/19 15:14:53;;;;;;;2.22;2.13;;;;;;;;;;5060607;28;20289;-62
2022/07/19 15:17:40;;;;;;;2.20;2.10;;;;;;;;;;5058647;28;20215;-62
2022/07/19 15:20:27;;;;;;;1.90;1.80;;;;;;;;;;5058417;28;20798;-62
2022/07/19 15:23:14;;;;;;;2.22;2.13;;;;;;;;;;5059869;28;20211;-62
2022/07/19 15:26:02;;;;;;;2.28;2.17;;;;;;;;;;5057997;28;20341;-61
2022/07/19 15:28:49;;;;;;;2.15;2.05;;;;;;;;;;5056498;28;20207;-62
2022/07/19 15:31:36;;;;;;;2.38;2.28;;;;;;;;;;5057535;28;20698;-62
2022/07/19 15:34:23;;;;;;;1.95;1.85;;;;;;;;;;5062057;28;20329;-63
2022/07/19 15:37:10;;;;;;;2.00;1.90;;;;;;;;;;5063750;28;20210;-63
2022/07/19 15:39:57;;;;;;;1.92;1.83;;;;;;;;;;5054307;28;20225;-62
2022/07/19 15:42:48;;;;;;;2.00;1.90;;;;;;;;;;5060146;28;20211;-62
2022/07/19 15:45:35;;;;;;;2.05;1.95;;;;;;;;;;5054874;28;20210;-62
2022/07/19 15:48:22;;;;;;;1.90;1.90;;;;;;;;;;5058185;28;20668;-62
2022/07/19 15:51:10;;;;;;;2.25;2.00;;;;;;;;;;5055566;28;20202;-62
2022/07/19 15:53:57;;;;;;;2.10;2.00;;;;;;;;;;5057057;28;20671;-63
2022/07/19 15:56:47;;;;;;;1.77;1.77;;;;;;;;;;5058795;28;20219;-62
2022/07/19 15:59:35;;;;;;;2.00;1.90;;;;;;;;;;5055229;28;20214;-62
2022/07/19 16:02:23;;;;;;;1.88;1.77;;;;;;;;;;5059788;28;20283;-62
2022/07/19 16:05:10;;;;;;;2.30;2.20;;;;;;;;;;5059844;28;20602;-62
2022/07/19 16:07:57;;;;;;;1.85;1.80;;;;;;;;;;5062924;28;20571;-62
2022/07/19 16:10:44;;;;;;;2.20;2.10;;;;;;;;;;5060177;28;20218;-63
2022/07/19 16:13:31;;;;;;;2.20;2.10;;;;;;;;;;5060452;28;20218;-63
2022/07/19 16:16:19;;;;;;;1.83;1.83;;;;;;;;;;5060427;28;20642;-62
2022/07/19 16:19:06;;;;;;;2.10;2.00;;;;;;;;;;5060391;28;20207;-62
2022/07/19 16:21:53;;;;;;;2.15;2.05;;;;;;;;;;5061613;28;20234;-62
2022/07/19 16:24:41;;;;;;;2.30;2.20;;;;;;;;;;5055817;28;20729;-62
2022/07/19 16:27:28;;;;;;;2.13;2.03;;;;;;;;;;5058765;28;20619;-62
2022/07/19 16:30:15;;;;;;;2.13;2.03;;;;;;;;;;5066758;28;20232;-62
2022/07/19 16:33:04;;;;;;;2.20;2.10;;;;;;;;;;5063664;28;20220;-62
2022/07/19 16:35:51;;;;;;;1.98;1.88;;;;;;;;;;5059233;28;20218;-62
2022/07/19 16:38:38;;;;;;;2.30;2.20;;;;;;;;;;5058305;28;20215;-62
2022/07/19 16:41:25;;;;;;;1.95;1.90;;;;;;;;;;5058759;28;20235;-62
2022/07/19 16:44:12;;;;;;;2.08;1.98;;;;;;;;;;5059505;28;20234;-62
2022/07/19 16:46:59;;;;;;;1.75;1.73;;;;;;;;;;5057404;28;20238;-62
2022/07/19 16:49:47;;;;;;;1.65;1.65;;;;;;;;;;5056160;28;20215;-62
2022/07/19 16:52:34;;;;;;;1.77;1.75;;;;;;;;;;5057269;28;20221;-62